Home > Products > Valid Products > TAF

000
FTUS46 KHNX 271120
TAFBFL
TAF
KBFL 271120Z 2712/2812 VRB04KT P6SM SKC
     FM272100 30009KT P6SM SKC
     FM280400 36004KT P6SM SKC=



000
FTUS46 KHNX 271120
TAFMCE
TAF
KMCE 271120Z 2712/2812 VRB03KT P6SM SKC
     FM272300 31010KT P6SM SKC=



000
FTUS46 KHNX 271120
TAFFAT
TAF
KFAT 271120Z 2712/2812 VRB03KT P6SM SKC
     FM280300 31010KT P6SM SKC=



000
FTUS46 KHNX 270521
TAFBFL
TAF
KBFL 270521Z 2706/2806 VRB04KT P6SM SKC
     FM272000 30008KT P6SM SKC
     FM280300 36007KT P6SM SKC=



000
FTUS46 KHNX 270521
TAFMCE
TAF
KMCE 270521Z 2706/2806 VRB04KT P6SM SKC
     FM272200 32007KT P6SM SKC=



000
FTUS46 KHNX 270521
TAFFAT
TAF
KFAT 270521Z 2706/2806 VRB04KT P6SM SKC
     FM280000 31007KT P6SM SKC=



000
FTUS46 KHNX 270521
TAFMCE
TAF
KMCE 270521Z 2706/2806 VRB04KT P6SM SKC
     FM272200 32007KT P6SM SKC=



000
FTUS46 KHNX 270521
TAFFAT
TAF
KFAT 270521Z 2706/2806 VRB04KT P6SM SKC
     FM280000 31007KT P6SM SKC=



000
FTUS46 KHNX 270521
TAFBFL
TAF
KBFL 270521Z 2706/2806 VRB04KT P6SM SKC
     FM272000 30008KT P6SM SKC
     FM280300 36007KT P6SM SKC=



000
FTUS46 KHNX 262320
TAFFAT
TAF
KFAT 262320Z 2700/2724 VRB04KT P6SM FEW200=



000
FTUS46 KHNX 262320
TAFFAT
TAF
KFAT 262320Z 2700/2724 VRB04KT P6SM FEW200=



000
FTUS46 KHNX 262320
TAFMCE
TAF
KMCE 262320Z 2700/2724 VRB04KT P6SM FEW200
     FM272200 32007KT P6SM FEW200=



000
FTUS46 KHNX 262320
TAFMCE
TAF
KMCE 262320Z 2700/2724 VRB04KT P6SM FEW200
     FM272200 32007KT P6SM FEW200=



000
FTUS46 KHNX 262320
TAFBFL
TAF
KBFL 262320Z 2700/2724 30008KT P6SM FEW200
     FM270300 VRB04KT P6SM FEW200
     FM272100 31008KT P6SM FEW200=



000
FTUS46 KHNX 262320
TAFBFL
TAF
KBFL 262320Z 2700/2724 30008KT P6SM FEW200
     FM270300 VRB04KT P6SM FEW200
     FM272100 31008KT P6SM FEW200=



000
FTUS46 KHNX 261732
TAFFAT
TAF
KFAT 261732Z 2618/2718 VRB04KT P6SM FEW200=



000
FTUS46 KHNX 261732
TAFMCE
TAF
KMCE 261732Z 2618/2718 VRB04KT P6SM FEW200=



000
FTUS46 KHNX 261732
TAFBFL
TAF
KBFL 261732Z 2618/2718 00000KT P6SM FEW200
     FM262000 30008KT P6SM FEW200
     FM270300 VRB04KT P6SM FEW200=



000
FTUS46 KHNX 261732
TAFMCE
TAF
KMCE 261732Z 2618/2718 VRB04KT P6SM FEW200=



000
FTUS46 KHNX 261732
TAFFAT
TAF
KFAT 261732Z 2618/2718 VRB04KT P6SM FEW200=



000
FTUS46 KHNX 261732
TAFBFL
TAF
KBFL 261732Z 2618/2718 00000KT P6SM FEW200
     FM262000 30008KT P6SM FEW200
     FM270300 VRB04KT P6SM FEW200=



000
FTUS46 KHNX 261133
TAFMCE
TAF
KMCE 261133Z 2612/2712 VRB04KT P6SM FEW200=



000
FTUS46 KHNX 261133
TAFFAT
TAF
KFAT 261133Z 2612/2712 VRB04KT P6SM FEW200=



000
FTUS46 KHNX 261133
TAFBFL
TAF
KBFL 261133Z 2612/2712 00000KT P6SM FEW200
     FM262000 30008KT P6SM FEW200
     FM270300 VRB04KT P6SM FEW200=



000
FTUS46 KHNX 261133
TAFBFL
TAF
KBFL 261133Z 2612/2712 00000KT P6SM FEW200
     FM262000 30008KT P6SM FEW200
     FM270300 VRB04KT P6SM FEW200=



000
FTUS46 KHNX 261133
TAFFAT
TAF
KFAT 261133Z 2612/2712 VRB04KT P6SM FEW200=



000
FTUS46 KHNX 261133
TAFMCE
TAF
KMCE 261133Z 2612/2712 VRB04KT P6SM FEW200=



000
FTUS46 KHNX 260523
TAFBFL
TAF
KBFL 260523Z 2606/2706 VRB04KT P6SM FEW200
     FM262000 30008KT P6SM FEW200
     FM270300 VRB04KT P6SM FEW200=



000
FTUS46 KHNX 260523
TAFMCE
TAF
KMCE 260523Z 2606/2706 VRB04KT P6SM FEW200=



000
FTUS46 KHNX 260523
TAFFAT
TAF
KFAT 260523Z 2606/2706 VRB04KT P6SM FEW200=



000
FTUS46 KHNX 260523
TAFBFL
TAF
KBFL 260523Z 2606/2706 VRB04KT P6SM FEW200
     FM262000 30008KT P6SM FEW200
     FM270300 VRB04KT P6SM FEW200=



000
FTUS46 KHNX 260523
TAFMCE
TAF
KMCE 260523Z 2606/2706 VRB04KT P6SM FEW200=



000
FTUS46 KHNX 260523
TAFFAT
TAF
KFAT 260523Z 2606/2706 VRB04KT P6SM FEW200=



000
FTUS46 KHNX 252320
TAFBFL
TAF
KBFL 252320Z 2600/2624 VRB04KT P6SM FEW200=



000
FTUS46 KHNX 252320
TAFBFL
TAF
KBFL 252320Z 2600/2624 VRB04KT P6SM FEW200=



000
FTUS46 KHNX 252320
TAFFAT
TAF
KFAT 252320Z 2600/2624 VRB04KT P6SM FEW200=



000
FTUS46 KHNX 252320
TAFMCE
TAF
KMCE 252320Z 2600/2624 VRB04KT P6SM FEW200=



000
FTUS46 KHNX 252320
TAFMCE
TAF
KMCE 252320Z 2600/2624 VRB04KT P6SM FEW200=



000
FTUS46 KHNX 252320
TAFFAT
TAF
KFAT 252320Z 2600/2624 VRB04KT P6SM FEW200=



000
FTUS46 KHNX 251722
TAFMCE
TAF
KMCE 251722Z 2518/2618 32005KT P6SM FEW200
     FM261400 07004KT P6SM FEW200=



000
FTUS46 KHNX 251722
TAFFAT
TAF
KFAT 251722Z 2518/2618 13005KT P6SM FEW200
     FM251900 32006KT P6SM FEW200
     FM260900 13004KT P6SM FEW200=



000
FTUS46 KHNX 251722
TAFBFL
TAF
KBFL 251722Z 2518/2618 VRB03KT P6SM SCT050
     FM252000 30006KT P6SM FEW200
     FM260700 08003KT P6SM FEW200=



000
FTUS46 KHNX 251722
TAFMCE
TAF
KMCE 251722Z 2518/2618 32005KT P6SM FEW200
     FM261400 07004KT P6SM FEW200=



000
FTUS46 KHNX 251722
TAFBFL
TAF
KBFL 251722Z 2518/2618 VRB03KT P6SM SCT050
     FM252000 30006KT P6SM FEW200
     FM260700 08003KT P6SM FEW200=



000
FTUS46 KHNX 251722
TAFFAT
TAF
KFAT 251722Z 2518/2618 13005KT P6SM FEW200
     FM251900 32006KT P6SM FEW200
     FM260900 13004KT P6SM FEW200=



000
FTUS46 KHNX 251137
TAFBFL
TAF
KBFL 251137Z 2512/2612 VRB03KT P6SM SCT050
     FM252000 30006KT P6SM FEW200=



000
FTUS46 KHNX 251137
TAFFAT
TAF
KFAT 251137Z 2512/2612 31005KT P6SM FEW200=



000
FTUS46 KHNX 251137
TAFMCE
TAF
KMCE 251137Z 2512/2612 32005KT P6SM FEW200=



000
FTUS46 KHNX 251137
TAFBFL
TAF
KBFL 251137Z 2512/2612 VRB03KT P6SM SCT050
     FM252000 30006KT P6SM FEW200=



000
FTUS46 KHNX 251137
TAFFAT
TAF
KFAT 251137Z 2512/2612 31005KT P6SM FEW200=



000
FTUS46 KHNX 251137
TAFMCE
TAF
KMCE 251137Z 2512/2612 32005KT P6SM FEW200=



000
FTUS46 KHNX 250520
TAFBFL
TAF
KBFL 250520Z 2506/2606 01005KT P6SM SCT200
     FM250900 VRB03KT P6SM FEW200
     FM252000 30009KT P6SM FEW200
     FM260300 34006KT P6SM FEW200=



000
FTUS46 KHNX 250520
TAFBFL
TAF
KBFL 250520Z 2506/2606 01005KT P6SM SCT200
     FM250900 VRB03KT P6SM FEW200
     FM252000 30009KT P6SM FEW200
     FM260300 34006KT P6SM FEW200=



000
FTUS46 KHNX 250520
TAFMCE
TAF
KMCE 250520Z 2506/2606 32008KT P6SM FEW200=



000
FTUS46 KHNX 250520
TAFMCE
TAF
KMCE 250520Z 2506/2606 32008KT P6SM FEW200=



000
FTUS46 KHNX 250520
TAFFAT
TAF
KFAT 250520Z 2506/2606 31008KT P6SM FEW200=



000
FTUS46 KHNX 250520
TAFFAT
TAF
KFAT 250520Z 2506/2606 31008KT P6SM FEW200=



000
FTUS46 KHNX 242320
TAFFAT
TAF
KFAT 242320Z 2500/2524 28013KT P6SM SCT100 BKN180 BKN200
     FM250300 32010KT P6SM SCT200
     FM251200 31004KT P6SM SCT200=



000
FTUS46 KHNX 242320
TAFFAT
TAF
KFAT 242320Z 2500/2524 28013KT P6SM SCT100 BKN180 BKN200
     FM250300 32010KT P6SM SCT200
     FM251200 31004KT P6SM SCT200=



000
FTUS46 KHNX 242320
TAFMCE
TAF
KMCE 242320Z 2500/2524 32018KT P6SM SKC
     FM250200 32008KT P6SM SCT200=



000
FTUS46 KHNX 242320
TAFMCE
TAF
KMCE 242320Z 2500/2524 32018KT P6SM SKC
     FM250200 32008KT P6SM SCT200=



000
FTUS46 KHNX 242320
TAFBFL
TAF
KBFL 242320Z 2500/2524 32005G18KT P6SM SKC
     FM250200 33006KT P6SM SCT200
     FM250800 VRB03KT P6SM SCT060=



000
FTUS46 KHNX 242320
TAFBFL
TAF
KBFL 242320Z 2500/2524 32005G18KT P6SM SKC
     FM250200 33006KT P6SM SCT200
     FM250800 VRB03KT P6SM SCT060=



000
FTUS46 KHNX 241720
TAFMCE
TAF
KMCE 241720Z 2418/2518 33015G25KT P6SM SCT120 BKN200
     FM250200 32008KT P6SM SCT200=



000
FTUS46 KHNX 241720
TAFBFL
TAF
KBFL 241720Z 2418/2518 30007KT P6SM SCT200
     FM242100 32012G18KT P6SM SCT120 BKN200
     FM250200 33006KT P6SM SCT200
     FM250800 VRB03KT P6SM SCT060=



000
FTUS46 KHNX 241720
TAFBFL
TAF
KBFL 241720Z 2418/2518 30007KT P6SM SCT200
     FM242100 32012G18KT P6SM SCT120 BKN200
     FM250200 33006KT P6SM SCT200
     FM250800 VRB03KT P6SM SCT060=



000
FTUS46 KHNX 241720
TAFMCE
TAF
KMCE 241720Z 2418/2518 33015G25KT P6SM SCT120 BKN200
     FM250200 32008KT P6SM SCT200=



000
FTUS46 KHNX 241720
TAFFAT
TAF
KFAT 241720Z 2418/2518 32008KT P6SM FEW120 SCT200
     FM242100 31014G21KT P6SM SCT120 BKN200
     FM250300 32010KT P6SM SCT200
     FM251200 31004KT P6SM SCT200=



000
FTUS46 KHNX 241720
TAFFAT
TAF
KFAT 241720Z 2418/2518 32008KT P6SM FEW120 SCT200
     FM242100 31014G21KT P6SM SCT120 BKN200
     FM250300 32010KT P6SM SCT200
     FM251200 31004KT P6SM SCT200=



    US Dept of Commerce
    National Oceanic and Atmospheric Administration
    National Weather Service
    1325 East West Highway
    Silver Spring, MD 20910
    Page Author: NWS Internet Services Team
Disclaimer
Information Quality
Credits
Glossary
Privacy Policy
Freedom of Information Act (FOIA)
About Us
Career Opportunities